createdAt,value
2022-09-12T00:00:08.954Z,4.47
2022-09-12T00:03:01.767Z,4.68
2022-09-12T00:05:53.304Z,4.85
2022-09-12T00:08:45.270Z,4.22
2022-09-12T00:11:38.651Z,4.43
2022-09-12T00:14:30.275Z,4.60
2022-09-12T00:17:21.693Z,4.70
2022-09-12T00:20:14.376Z,4.53
2022-09-12T00:23:05.956Z,4.55
2022-09-12T00:25:57.248Z,4.47
2022-09-12T00:28:49.395Z,4.97
2022-09-12T00:31:40.806Z,4.68
2022-09-12T00:34:32.658Z,5.28
2022-09-12T00:37:25.539Z,5.35
2022-09-12T00:40:17.186Z,4.93
2022-09-12T00:43:14.275Z,4.80
2022-09-12T00:46:14.732Z,4.60
2022-09-12T00:49:12.581Z,4.45
2022-09-12T00:52:09.702Z,4.25
2022-09-12T00:55:08.154Z,3.83
2022-09-12T00:58:03.870Z,4.03
2022-09-12T01:00:55.607Z,4.22
2022-09-12T01:03:47.986Z,3.90
2022-09-12T01:06:42.278Z,4.05
2022-09-12T01:09:34.548Z,3.90
2022-09-12T01:12:28.143Z,4.03
2022-09-12T01:15:20.071Z,4.25
2022-09-12T01:18:21.694Z,4.70
2022-09-12T01:21:26.075Z,4.13
2022-09-12T01:24:39.755Z,4.10
2022-09-12T01:27:45.052Z,3.70
2022-09-12T01:30:52.228Z,4.32
2022-09-12T01:34:02.130Z,4.10
2022-09-12T01:37:03.693Z,4.00
2022-09-12T01:40:03.181Z,3.65
2022-09-12T01:43:01.367Z,4.13
2022-09-12T01:46:02.102Z,4.03
2022-09-12T01:48:58.721Z,3.55
2022-09-12T01:51:59.928Z,4.10
2022-09-12T01:54:55.580Z,4.20
2022-09-12T01:57:53.462Z,4.07
2022-09-12T02:00:52.082Z,4.18
2022-09-12T02:03:50.998Z,3.85
2022-09-12T02:06:47.417Z,3.78
2022-09-12T02:09:44.013Z,3.95
2022-09-12T02:12:41.355Z,4.10
2022-09-12T02:15:38.885Z,4.00
2022-09-12T02:18:33.924Z,3.88
2022-09-12T02:21:32.782Z,3.78
2022-09-12T02:24:30.127Z,3.38
2022-09-12T02:27:24.973Z,4.00
2022-09-12T02:30:19.331Z,4.28
2022-09-12T02:33:21.815Z,3.95
2022-09-12T02:36:23.907Z,3.70
2022-09-12T02:39:19.970Z,4.30
2022-09-12T02:42:12.423Z,4.30
2022-09-12T02:45:05.279Z,4.00
2022-09-12T02:48:00.809Z,4.35
2022-09-12T02:50:52.680Z,3.80
2022-09-12T02:53:44.338Z,4.35
2022-09-12T02:56:37.727Z,4.22
2022-09-12T02:59:29.541Z,4.43
2022-09-12T03:02:31.404Z,4.28
2022-09-12T03:05:27.822Z,3.30
2022-09-12T03:08:38.454Z,4.18
2022-09-12T03:11:52.082Z,4.40
2022-09-12T03:15:01.557Z,4.25
2022-09-12T03:18:07.400Z,4.05
2022-09-12T03:21:05.685Z,4.72
2022-09-12T03:24:07.602Z,5.85
2022-09-12T03:27:10.198Z,5.57
2022-09-12T03:30:02.784Z,6.07
2022-09-12T03:32:56.199Z,4.72
2022-09-12T03:35:48.556Z,3.95
2022-09-12T03:38:40.173Z,4.45
2022-09-12T03:41:31.730Z,4.75
2022-09-12T03:44:25.150Z,5.63
2022-09-12T03:47:17.065Z,4.50
2022-09-12T03:50:09.484Z,4.28
2022-09-12T03:53:01.011Z,4.10
2022-09-12T03:55:52.651Z,4.25
2022-09-12T03:58:44.614Z,4.00
2022-09-12T04:01:38.514Z,4.32
2022-09-12T04:04:30.250Z,4.30
2022-09-12T04:07:21.783Z,4.25
2022-09-12T04:10:16.089Z,4.45
2022-09-12T04:13:08.117Z,4.05
2022-09-12T04:16:00.565Z,4.10
2022-09-12T04:18:53.488Z,4.88
2022-09-12T04:21:45.052Z,4.43
2022-09-12T04:24:36.993Z,3.97
2022-09-12T04:27:28.828Z,4.20
2022-09-12T04:30:20.528Z,4.32
2022-09-12T04:33:12.535Z,5.18
2022-09-12T04:36:07.485Z,4.47
2022-09-12T04:39:00.297Z,5.53
2022-09-12T04:41:52.019Z,5.30
2022-09-12T04:44:43.873Z,5.70
2022-09-12T04:47:35.696Z,5.75
2022-09-12T04:50:27.371Z,5.38
2022-09-12T04:53:20.528Z,5.18
2022-09-12T04:56:12.884Z,5.15
2022-09-12T04:59:04.823Z,5.72
2022-09-12T05:01:56.548Z,5.35
2022-09-12T05:04:48.150Z,5.53
2022-09-12T05:07:39.976Z,5.55
2022-09-12T05:10:32.942Z,9.45
2022-09-12T05:13:24.730Z,5.65
2022-09-12T05:16:18.791Z,5.22
2022-09-12T05:19:12.315Z,5.35
2022-09-12T05:22:05.061Z,4.88
2022-09-12T05:24:56.430Z,5.38
2022-09-12T05:27:53.849Z,5.55
2022-09-12T05:30:45.913Z,5.97
2022-09-12T05:33:39.756Z,5.72
2022-09-12T05:36:31.957Z,5.75
2022-09-12T05:39:24.620Z,5.82
2022-09-12T05:42:16.360Z,5.57
2022-09-12T05:45:10.572Z,5.75
2022-09-12T05:48:03.016Z,6.20
2022-09-12T05:51:01.445Z,6.63
2022-09-12T05:53:56.754Z,6.60
2022-09-12T05:56:49.382Z,6.57
2022-09-12T05:59:41.062Z,6.90
2022-09-12T06:02:34.330Z,7.13
2022-09-12T06:05:26.189Z,6.90
2022-09-12T06:08:18.261Z,7.22
2022-09-12T06:11:11.841Z,9.43
2022-09-12T06:14:04.376Z,8.38
2022-09-12T06:16:56.078Z,8.93
2022-09-12T06:19:49.792Z,8.45
2022-09-12T06:22:41.588Z,9.50
2022-09-12T06:25:33.697Z,9.80
2022-09-12T06:28:25.079Z,9.63
2022-09-12T06:31:18.680Z,9.88
2022-09-12T06:34:11.885Z,9.50
2022-09-12T06:37:04.943Z,10.30
2022-09-12T06:39:56.487Z,10.15
2022-09-12T06:42:48.693Z,10.40
2022-09-12T06:45:40.453Z,10.05
2022-09-12T06:48:32.422Z,9.88
2022-09-12T06:51:24.626Z,10.07
2022-09-12T06:54:18.154Z,9.77
2022-09-12T06:57:09.687Z,9.65
2022-09-12T07:00:02.147Z,9.88
2022-09-12T07:02:56.384Z,9.77
2022-09-12T07:05:48.279Z,9.43
2022-09-12T07:08:40.867Z,9.05
2022-09-12T07:11:36.553Z,9.00
2022-09-12T07:14:28.290Z,9.07
2022-09-12T07:17:20.287Z,8.45
2022-09-12T07:20:11.835Z,8.23
2022-09-12T07:23:03.549Z,7.13
2022-09-12T07:25:57.139Z,8.48
2022-09-12T07:28:54.086Z,7.68
2022-09-12T07:31:46.227Z,6.35
2022-09-12T07:34:37.993Z,7.35
2022-09-12T07:37:31.195Z,7.50
2022-09-12T07:40:22.986Z,7.40
2022-09-12T07:43:14.252Z,7.72
2022-09-12T07:46:08.017Z,6.75
2022-09-12T07:49:01.416Z,6.60
2022-09-12T07:51:53.154Z,6.18
2022-09-12T07:55:04.916Z,5.63
2022-09-12T07:57:56.719Z,4.80
2022-09-12T08:00:48.138Z,4.40
2022-09-12T08:03:42.176Z,4.80
2022-09-12T08:06:36.057Z,4.70
2022-09-12T08:09:28.012Z,4.88
2022-09-12T08:12:20.254Z,4.57
2022-09-12T08:15:31.432Z,3.95
2022-09-12T08:18:43.566Z,4.03
2022-09-12T08:21:54.050Z,4.10
2022-09-12T08:25:05.161Z,3.45
2022-09-12T08:28:15.203Z,3.75
2022-09-12T08:31:27.239Z,3.53
2022-09-12T08:34:39.041Z,3.70
2022-09-12T08:37:48.993Z,4.47
2022-09-12T08:41:08.296Z,3.63
2022-09-12T08:44:32.862Z,3.70
2022-09-12T08:47:46.461Z,3.92
2022-09-12T08:50:58.440Z,4.78
2022-09-12T08:54:20.360Z,3.75
2022-09-12T08:57:30.644Z,3.53
2022-09-12T09:00:50.241Z,3.25
2022-09-12T09:04:28.937Z,3.13
2022-09-12T09:08:11.185Z,3.15
2022-09-12T09:11:48.305Z,3.58
2022-09-12T09:15:22.148Z,3.33
2022-09-12T09:18:35.412Z,3.00
2022-09-12T09:21:51.346Z,3.33
2022-09-12T09:25:09.489Z,3.13
2022-09-12T09:28:24.061Z,3.35
2022-09-12T09:31:38.646Z,2.70
2022-09-12T09:34:48.905Z,3.22
2022-09-12T09:38:08.695Z,3.20
2022-09-12T09:41:36.430Z,2.67
2022-09-12T09:44:49.097Z,2.75
2022-09-12T09:48:04.783Z,2.72
2022-09-12T09:51:18.080Z,2.20
2022-09-12T09:54:35.545Z,2.58
2022-09-12T09:57:48.425Z,2.75
2022-09-12T10:01:02.770Z,2.30
2022-09-12T10:04:20.434Z,2.25
2022-09-12T10:07:30.911Z,2.20
2022-09-12T10:10:54.754Z,2.05
2022-09-12T10:14:22.984Z,2.75
2022-09-12T10:17:43.047Z,2.35
2022-09-12T10:20:53.189Z,2.47
2022-09-12T10:24:07.590Z,2.00
2022-09-12T10:27:23.365Z,1.58
2022-09-12T10:30:35.603Z,1.50
2022-09-12T10:33:52.626Z,1.60
2022-09-12T10:37:06.112Z,1.73
2022-09-12T10:40:25.456Z,1.80
2022-09-12T10:43:37.994Z,1.52
2022-09-12T10:46:49.833Z,1.25
2022-09-12T10:50:22.980Z,1.67
2022-09-12T10:53:41.371Z,1.25
2022-09-12T10:57:14.568Z,1.83
2022-09-12T11:00:30.311Z,1.70
2022-09-12T11:03:54.312Z,2.10
2022-09-12T11:07:22.356Z,1.65
2022-09-12T11:10:46.493Z,1.70
2022-09-12T11:14:14.110Z,2.00
2022-09-12T11:17:37.389Z,1.80
2022-09-12T11:21:04.821Z,1.60
2022-09-12T11:24:36.153Z,1.40
2022-09-12T11:28:04.099Z,1.73
2022-09-12T11:31:40.934Z,1.70
2022-09-12T11:35:04.872Z,1.90
2022-09-12T11:38:48.396Z,1.40
2022-09-12T11:42:03.757Z,1.52
2022-09-12T11:45:19.404Z,1.55
2022-09-12T11:48:40.100Z,1.73
2022-09-12T11:51:54.913Z,1.73
2022-09-12T11:55:13.722Z,1.50
2022-09-12T11:58:27.369Z,1.50
2022-09-12T12:01:47.665Z,1.50
2022-09-12T12:05:20.559Z,1.23
2022-09-12T12:08:32.388Z,1.50
2022-09-12T12:11:49.050Z,1.10
2022-09-12T12:15:00.026Z,1.25
2022-09-12T12:18:19.136Z,1.30
2022-09-12T12:21:41.012Z,1.23
2022-09-12T12:24:59.459Z,1.40
2022-09-12T12:28:11.134Z,1.40
2022-09-12T12:31:21.477Z,1.48
2022-09-12T12:34:33.499Z,1.40
2022-09-12T12:37:56.951Z,1.10
2022-09-12T12:41:45.032Z,1.15
2022-09-12T12:48:12.199Z,1.30
2022-09-12T12:51:37.230Z,1.27
2022-09-12T12:54:58.403Z,1.38
2022-09-12T12:58:25.070Z,1.45
2022-09-12T13:01:41.027Z,1.48
2022-09-12T13:04:51.882Z,1.30
2022-09-12T13:08:10.076Z,1.25
2022-09-12T13:11:32.316Z,1.58
2022-09-12T13:14:52.602Z,1.67
2022-09-12T13:18:06.806Z,1.73
2022-09-12T13:21:19.113Z,1.30
2022-09-12T13:24:29.954Z,1.70
2022-09-12T13:27:40.045Z,1.35
2022-09-12T13:30:59.014Z,1.60
2022-09-12T13:34:12.471Z,1.77
2022-09-12T13:37:39.476Z,1.55
2022-09-12T13:41:06.730Z,1.08
2022-09-12T13:44:20.961Z,1.30
2022-09-12T13:47:36.875Z,1.90
2022-09-12T13:50:52.600Z,1.75
2022-09-12T13:54:06.357Z,1.00
2022-09-12T13:57:34.050Z,1.60
2022-09-12T14:00:45.000Z,1.20
2022-09-12T14:04:13.905Z,1.60
2022-09-12T14:07:27.324Z,1.20
2022-09-12T14:10:41.068Z,1.70
2022-09-12T14:13:52.694Z,1.65
2022-09-12T14:17:19.756Z,1.58
2022-09-12T14:20:33.936Z,1.55
2022-09-12T14:23:48.684Z,1.40
2022-09-12T14:26:58.988Z,1.77
2022-09-12T14:30:22.653Z,1.60
2022-09-12T14:33:43.049Z,1.75
2022-09-12T14:36:56.255Z,1.60
2022-09-12T14:40:18.032Z,1.88
2022-09-12T14:43:30.037Z,1.50
2022-09-12T14:46:42.768Z,2.10
2022-09-12T14:49:53.584Z,2.10
2022-09-12T14:53:06.099Z,2.08
2022-09-12T14:56:18.067Z,1.90
2022-09-12T14:59:31.346Z,2.08
2022-09-12T15:02:42.801Z,2.45
2022-09-12T15:05:53.150Z,2.65
2022-09-12T15:09:08.060Z,3.20
2022-09-12T15:12:19.884Z,1.70
2022-09-12T15:15:30.021Z,1.95
2022-09-12T15:18:40.159Z,2.20
2022-09-12T15:21:50.324Z,1.75
2022-09-12T15:25:00.685Z,2.20
2022-09-12T15:28:19.118Z,1.80
2022-09-12T15:31:31.132Z,1.85
2022-09-12T15:34:41.781Z,1.80
2022-09-12T15:37:52.381Z,1.83
2022-09-12T15:41:02.861Z,2.22
2022-09-12T15:44:14.666Z,1.80
2022-09-12T15:47:24.844Z,1.73
2022-09-12T15:50:36.117Z,1.85
2022-09-12T15:53:47.487Z,1.90
2022-09-12T15:56:58.084Z,2.28
2022-09-12T16:00:11.189Z,1.92
2022-09-12T16:03:24.058Z,2.20
2022-09-12T16:06:37.301Z,2.10
2022-09-12T16:09:48.082Z,2.40
2022-09-12T16:12:59.677Z,2.10
2022-09-12T16:16:11.595Z,2.08
2022-09-12T16:19:22.460Z,2.30
2022-09-12T16:22:33.620Z,2.55
2022-09-12T16:25:43.925Z,2.25
2022-09-12T16:28:55.883Z,2.50
2022-09-12T16:32:07.439Z,2.35
2022-09-12T16:35:17.468Z,3.55
2022-09-12T16:38:27.995Z,2.47
2022-09-12T16:41:38.169Z,2.80
2022-09-12T16:44:48.404Z,2.65
2022-09-12T16:47:59.619Z,2.70
2022-09-12T16:51:09.740Z,2.20
2022-09-12T16:54:20.119Z,2.85
2022-09-12T16:57:30.303Z,3.00
2022-09-12T17:00:40.149Z,2.33
2022-09-12T17:03:54.353Z,3.13
2022-09-12T17:07:04.855Z,3.47
2022-09-12T17:10:15.061Z,3.40
2022-09-12T17:13:36.559Z,3.97
2022-09-12T17:16:55.268Z,3.63
2022-09-12T17:20:07.161Z,3.25
2022-09-12T17:23:17.854Z,2.88
2022-09-12T17:26:27.954Z,3.53
2022-09-12T17:29:38.634Z,3.60
2022-09-12T17:32:48.741Z,3.22
2022-09-12T17:36:02.860Z,3.20
2022-09-12T17:39:14.423Z,2.90
2022-09-12T17:42:24.377Z,2.88
2022-09-12T17:45:34.454Z,3.15
2022-09-12T17:48:44.955Z,3.00
2022-09-12T17:51:57.896Z,2.88
2022-09-12T17:55:08.448Z,3.03
2022-09-12T17:58:18.635Z,3.30
2022-09-12T18:02:02.202Z,3.38
2022-09-12T18:05:12.561Z,3.50
2022-09-12T18:08:25.236Z,5.15
2022-09-12T18:11:36.067Z,4.32
2022-09-12T18:14:46.427Z,3.75
2022-09-12T18:17:56.629Z,3.80
2022-09-12T18:21:08.559Z,4.15
2022-09-12T18:24:20.755Z,3.63
2022-09-12T18:27:31.296Z,4.03
2022-09-12T18:30:42.454Z,3.63
2022-09-12T18:33:53.121Z,3.50
2022-09-12T18:37:05.195Z,3.83
2022-09-12T18:40:17.168Z,3.60
2022-09-12T18:43:27.131Z,3.75
2022-09-12T18:46:37.273Z,3.50
2022-09-12T18:49:48.495Z,3.67
2022-09-12T18:52:59.866Z,3.38
2022-09-12T18:56:13.763Z,3.10
2022-09-12T18:59:24.147Z,3.50
2022-09-12T19:02:34.827Z,3.20
2022-09-12T19:05:44.833Z,3.55
2022-09-12T19:08:56.445Z,3.05
2022-09-12T19:12:08.795Z,3.67
2022-09-12T19:15:18.951Z,3.38
2022-09-12T19:18:28.900Z,3.20
2022-09-12T19:21:39.024Z,3.67
2022-09-12T19:24:49.076Z,3.50
2022-09-12T19:28:00.487Z,3.95
2022-09-12T19:31:13.148Z,3.67
2022-09-12T19:34:23.482Z,3.55
2022-09-12T19:37:33.523Z,6.65
2022-09-12T19:40:44.114Z,3.92
2022-09-12T19:43:56.235Z,3.13
2022-09-12T19:47:06.594Z,3.60
2022-09-12T19:50:17.084Z,3.30
2022-09-12T19:53:28.347Z,3.65
2022-09-12T19:56:38.838Z,3.53
2022-09-12T19:59:50.372Z,3.83
2022-09-12T20:03:00.814Z,3.53
2022-09-12T20:06:13.123Z,3.35
2022-09-12T20:09:23.588Z,3.25
2022-09-12T20:12:33.997Z,3.28
2022-09-12T20:15:45.526Z,5.78
2022-09-12T20:18:58.242Z,3.30
2022-09-12T20:22:08.474Z,3.40
2022-09-12T20:25:20.004Z,3.00
2022-09-12T20:28:30.476Z,2.85
2022-09-12T20:31:43.207Z,2.90
2022-09-12T20:34:53.812Z,3.05
2022-09-12T20:38:04.008Z,3.45
2022-09-12T20:41:14.169Z,3.63
2022-09-12T20:44:24.399Z,3.00
2022-09-12T20:47:36.074Z,3.25
2022-09-12T20:50:46.454Z,3.50
2022-09-12T20:53:57.626Z,3.78
2022-09-12T20:57:07.784Z,3.50
2022-09-12T21:00:18.339Z,3.30
2022-09-12T21:03:29.985Z,3.67
2022-09-12T21:06:40.374Z,3.60
2022-09-12T21:09:50.616Z,3.53
2022-09-12T21:13:00.747Z,3.95
2022-09-12T21:16:13.744Z,4.07
2022-09-12T21:19:25.703Z,3.30
2022-09-12T21:22:36.120Z,4.28
2022-09-12T21:25:52.165Z,3.88
2022-09-12T21:29:03.203Z,3.47
2022-09-12T21:32:14.324Z,3.42
2022-09-12T21:35:26.132Z,3.78
2022-09-12T21:38:36.482Z,3.40
2022-09-12T21:41:46.843Z,3.60
2022-09-12T21:44:57.091Z,3.60
2022-09-12T21:48:07.680Z,3.55
2022-09-12T21:51:19.244Z,3.58
2022-09-12T21:54:29.821Z,3.67
2022-09-12T21:57:40.175Z,3.40
2022-09-12T22:00:51.219Z,3.58
2022-09-12T22:04:01.668Z,3.40
2022-09-12T22:07:13.017Z,3.30
2022-09-12T22:10:23.433Z,4.10
2022-09-12T22:13:33.724Z,3.45
2022-09-12T22:16:44.411Z,4.05
2022-09-12T22:19:54.962Z,3.33
2022-09-12T22:23:28.830Z,3.72
2022-09-12T22:26:43.203Z,3.50
2022-09-12T22:29:53.627Z,4.28
2022-09-12T22:32:51.074Z,3.75
2022-09-12T22:39:32.509Z,3.85
2022-09-12T22:42:42.952Z,3.55
2022-09-12T22:45:53.262Z,3.85
2022-09-12T22:49:04.664Z,3.50
2022-09-12T22:52:15.844Z,3.40
2022-09-12T22:55:27.760Z,3.33
2022-09-12T22:58:38.144Z,3.28
2022-09-12T23:01:48.365Z,3.70
2022-09-12T23:04:58.890Z,3.67
2022-09-12T23:08:09.082Z,3.75
2022-09-12T23:11:22.094Z,3.72
2022-09-12T23:14:32.510Z,3.90
2022-09-12T23:17:42.730Z,4.10
2022-09-12T23:21:00.192Z,4.20
2022-09-12T23:24:10.753Z,3.50
2022-09-12T23:27:23.236Z,3.20
2022-09-12T23:30:33.502Z,3.60
2022-09-12T23:33:44.178Z,3.78
2022-09-12T23:36:55.183Z,3.35
2022-09-12T23:40:06.042Z,3.65
2022-09-12T23:43:17.296Z,3.45
2022-09-12T23:46:27.841Z,3.70
2022-09-12T23:49:38.452Z,3.28
2022-09-12T23:52:48.544Z,3.33
2022-09-12T23:55:59.170Z,3.33
2022-09-12T23:59:10.553Z,3.28
